sensor_id;sensor_type;location;lat;lon;timestamp;P1;durP1;ratioP1;P2;durP2;ratioP2
68089;SDS011;54880;50.986;6.990;2022-09-20T00:01:39;7.97;;;2.00;;
68089;SDS011;54880;50.986;6.990;2022-09-20T00:04:04;9.80;;;1.80;;
68089;SDS011;54880;50.986;6.990;2022-09-20T00:06:31;10.40;;;1.85;;
68089;SDS011;54880;50.986;6.990;2022-09-20T00:08:57;8.18;;;1.90;;
68089;SDS011;54880;50.986;6.990;2022-09-20T00:11:27;10.43;;;2.20;;
68089;SDS011;54880;50.986;6.990;2022-09-20T00:13:53;8.98;;;2.05;;
68089;SDS011;54880;50.986;6.990;2022-09-20T00:16:24;11.10;;;1.90;;
68089;SDS011;54880;50.986;6.990;2022-09-20T00:18:50;7.47;;;2.30;;
68089;SDS011;54880;50.986;6.990;2022-09-20T00:21:16;8.25;;;1.80;;
68089;SDS011;54880;50.986;6.990;2022-09-20T00:23:42;10.00;;;2.30;;
68089;SDS011;54880;50.986;6.990;2022-09-20T00:26:07;10.25;;;2.35;;
68089;SDS011;54880;50.986;6.990;2022-09-20T00:28:32;8.57;;;2.20;;
68089;SDS011;54880;50.986;6.990;2022-09-20T00:30:58;11.07;;;1.70;;
68089;SDS011;54880;50.986;6.990;2022-09-20T00:33:24;7.97;;;2.00;;
68089;SDS011;54880;50.986;6.990;2022-09-20T00:36:09;14.02;;;2.30;;
68089;SDS011;54880;50.986;6.990;2022-09-20T00:38:35;12.03;;;1.90;;
68089;SDS011;54880;50.986;6.990;2022-09-20T00:41:00;7.97;;;1.60;;
68089;SDS011;54880;50.986;6.990;2022-09-20T00:43:35;8.67;;;1.77;;
68089;SDS011;54880;50.986;6.990;2022-09-20T00:46:01;7.95;;;1.77;;
68089;SDS011;54880;50.986;6.990;2022-09-20T00:48:27;9.80;;;1.83;;
68089;SDS011;54880;50.986;6.990;2022-09-20T00:50:54;10.20;;;2.20;;
68089;SDS011;54880;50.986;6.990;2022-09-20T00:55:48;12.50;;;1.80;;
68089;SDS011;54880;50.986;6.990;2022-09-20T00:58:14;9.20;;;1.63;;
68089;SDS011;54880;50.986;6.990;2022-09-20T01:00:41;10.23;;;1.80;;
68089;SDS011;54880;50.986;6.990;2022-09-20T01:03:07;12.67;;;1.60;;
68089;SDS011;54880;50.986;6.990;2022-09-20T01:05:34;11.95;;;2.30;;
68089;SDS011;54880;50.986;6.990;2022-09-20T01:08:00;9.43;;;2.00;;
68089;SDS011;54880;50.986;6.990;2022-09-20T01:10:26;10.20;;;1.80;;
68089;SDS011;54880;50.986;6.990;2022-09-20T01:12:51;11.73;;;2.13;;
68089;SDS011;54880;50.986;6.990;2022-09-20T01:15:17;12.30;;;1.63;;
68089;SDS011;54880;50.986;6.990;2022-09-20T01:17:45;9.77;;;2.00;;
68089;SDS011;54880;50.986;6.990;2022-09-20T01:20:22;13.98;;;2.65;;
68089;SDS011;54880;50.986;6.990;2022-09-20T01:28:04;8.27;;;2.30;;
68089;SDS011;54880;50.986;6.990;2022-09-20T01:30:31;8.80;;;2.00;;
68089;SDS011;54880;50.986;6.990;2022-09-20T01:35:43;10.40;;;2.28;;
68089;SDS011;54880;50.986;6.990;2022-09-20T01:41:14;9.15;;;2.30;;
68089;SDS011;54880;50.986;6.990;2022-09-20T01:43:44;7.55;;;2.33;;
68089;SDS011;54880;50.986;6.990;2022-09-20T01:46:33;12.20;;;2.22;;
68089;SDS011;54880;50.986;6.990;2022-09-20T01:51:47;11.40;;;2.50;;
68089;SDS011;54880;50.986;6.990;2022-09-20T01:57:10;10.77;;;2.55;;
68089;SDS011;54880;50.986;6.990;2022-09-20T01:59:52;10.07;;;2.70;;
68089;SDS011;54880;50.986;6.990;2022-09-20T02:02:29;10.13;;;2.90;;
68089;SDS011;54880;50.986;6.990;2022-09-20T02:05:17;13.83;;;2.43;;
68089;SDS011;54880;50.986;6.990;2022-09-20T02:23:06;10.63;;;2.42;;
68089;SDS011;54880;50.986;6.990;2022-09-20T02:28:22;10.07;;;2.50;;
68089;SDS011;54880;50.986;6.990;2022-09-20T02:35:50;15.68;;;2.75;;
68089;SDS011;54880;50.986;6.990;2022-09-20T02:43:45;11.33;;;2.80;;
68089;SDS011;54880;50.986;6.990;2022-09-20T02:46:33;17.55;;;3.40;;
68089;SDS011;54880;50.986;6.990;2022-09-20T02:51:54;13.25;;;2.72;;
68089;SDS011;54880;50.986;6.990;2022-09-20T03:02:21;12.65;;;2.88;;
68089;SDS011;54880;50.986;6.990;2022-09-20T03:07:38;10.95;;;2.50;;
68089;SDS011;54880;50.986;6.990;2022-09-20T03:10:10;10.30;;;2.17;;
68089;SDS011;54880;50.986;6.990;2022-09-20T03:20:19;12.37;;;2.53;;
68089;SDS011;54880;50.986;6.990;2022-09-20T03:23:00;13.85;;;2.22;;
68089;SDS011;54880;50.986;6.990;2022-09-20T03:41:53;14.20;;;2.90;;
68089;SDS011;54880;50.986;6.990;2022-09-20T03:46:58;13.75;;;3.83;;
68089;SDS011;54880;50.986;6.990;2022-09-20T03:52:18;11.27;;;2.43;;
68089;SDS011;54880;50.986;6.990;2022-09-20T04:00:21;12.20;;;2.65;;
68089;SDS011;54880;50.986;6.990;2022-09-20T04:03:09;12.10;;;2.90;;
68089;SDS011;54880;50.986;6.990;2022-09-20T04:06:02;12.33;;;2.50;;
68089;SDS011;54880;50.986;6.990;2022-09-20T04:11:15;10.50;;;2.88;;
68089;SDS011;54880;50.986;6.990;2022-09-20T04:13:46;12.13;;;3.10;;
68089;SDS011;54880;50.986;6.990;2022-09-20T04:21:33;10.18;;;2.83;;
68089;SDS011;54880;50.986;6.990;2022-09-20T04:24:04;11.60;;;2.90;;
68089;SDS011;54880;50.986;6.990;2022-09-20T04:26:34;19.75;;;3.00;;
68089;SDS011;54880;50.986;6.990;2022-09-20T04:31:35;12.13;;;2.40;;
68089;SDS011;54880;50.986;6.990;2022-09-20T04:34:04;9.73;;;2.70;;
68089;SDS011;54880;50.986;6.990;2022-09-20T04:36:55;9.23;;;2.60;;
68089;SDS011;54880;50.986;6.990;2022-09-20T04:39:24;16.95;;;2.90;;
68089;SDS011;54880;50.986;6.990;2022-09-20T04:45:36;12.27;;;3.17;;
68089;SDS011;54880;50.986;6.990;2022-09-20T04:55:49;9.80;;;3.17;;
68089;SDS011;54880;50.986;6.990;2022-09-20T05:25:35;11.27;;;3.80;;
68089;SDS011;54880;50.986;6.990;2022-09-20T05:27:40;17.48;;;3.47;;
68089;SDS011;54880;50.986;6.990;2022-09-20T05:32:38;11.25;;;3.35;;
68089;SDS011;54880;50.986;6.990;2022-09-20T05:37:42;12.00;;;3.87;;
68089;SDS011;54880;50.986;6.990;2022-09-20T05:40:30;18.52;;;4.18;;
68089;SDS011;54880;50.986;6.990;2022-09-20T05:43:15;14.98;;;3.97;;
68089;SDS011;54880;50.986;6.990;2022-09-20T05:48:33;12.07;;;4.20;;
68089;SDS011;54880;50.986;6.990;2022-09-20T05:51:08;13.63;;;4.70;;
68089;SDS011;54880;50.986;6.990;2022-09-20T05:56:34;15.70;;;4.00;;
68089;SDS011;54880;50.986;6.990;2022-09-20T05:59:05;16.20;;;5.03;;
68089;SDS011;54880;50.986;6.990;2022-09-20T06:06:54;15.90;;;3.83;;
68089;SDS011;54880;50.986;6.990;2022-09-20T06:09:26;19.33;;;4.60;;
68089;SDS011;54880;50.986;6.990;2022-09-20T06:22:28;14.83;;;4.20;;
68089;SDS011;54880;50.986;6.990;2022-09-20T06:24:59;15.30;;;3.85;;
68089;SDS011;54880;50.986;6.990;2022-09-20T06:27:27;14.65;;;4.07;;
68089;SDS011;54880;50.986;6.990;2022-09-20T06:29:56;13.00;;;3.90;;
68089;SDS011;54880;50.986;6.990;2022-09-20T06:32:22;14.18;;;4.97;;
68089;SDS011;54880;50.986;6.990;2022-09-20T06:34:47;13.47;;;4.47;;
68089;SDS011;54880;50.986;6.990;2022-09-20T06:40:16;15.80;;;4.32;;
68089;SDS011;54880;50.986;6.990;2022-09-20T06:43:02;11.55;;;3.85;;
68089;SDS011;54880;50.986;6.990;2022-09-20T06:45:28;15.63;;;4.10;;
68089;SDS011;54880;50.986;6.990;2022-09-20T06:47:55;13.07;;;4.35;;
68089;SDS011;54880;50.986;6.990;2022-09-20T06:50:20;16.43;;;4.73;;
68089;SDS011;54880;50.986;6.990;2022-09-20T06:52:45;15.40;;;4.70;;
68089;SDS011;54880;50.986;6.990;2022-09-20T06:55:15;11.25;;;4.28;;
68089;SDS011;54880;50.986;6.990;2022-09-20T06:57:42;17.30;;;4.80;;
68089;SDS011;54880;50.986;6.990;2022-09-20T07:00:08;14.48;;;4.30;;
68089;SDS011;54880;50.986;6.990;2022-09-20T07:02:35;13.37;;;4.20;;
68089;SDS011;54880;50.986;6.990;2022-09-20T07:05:00;14.57;;;4.30;;
68089;SDS011;54880;50.986;6.990;2022-09-20T07:07:26;12.97;;;4.03;;
68089;SDS011;54880;50.986;6.990;2022-09-20T07:09:51;12.55;;;3.92;;
68089;SDS011;54880;50.986;6.990;2022-09-20T07:12:16;11.37;;;4.17;;
68089;SDS011;54880;50.986;6.990;2022-09-20T07:14:42;14.87;;;4.50;;
68089;SDS011;54880;50.986;6.990;2022-09-20T07:17:08;12.77;;;4.28;;
68089;SDS011;54880;50.986;6.990;2022-09-20T07:19:33;10.80;;;4.00;;
68089;SDS011;54880;50.986;6.990;2022-09-20T07:22:00;14.25;;;5.28;;
68089;SDS011;54880;50.986;6.990;2022-09-20T07:24:26;13.47;;;4.33;;
68089;SDS011;54880;50.986;6.990;2022-09-20T07:26:58;13.73;;;4.00;;
68089;SDS011;54880;50.986;6.990;2022-09-20T07:29:24;13.00;;;4.60;;
68089;SDS011;54880;50.986;6.990;2022-09-20T07:31:49;17.43;;;5.07;;
68089;SDS011;54880;50.986;6.990;2022-09-20T07:34:15;14.23;;;4.10;;
68089;SDS011;54880;50.986;6.990;2022-09-20T07:36:47;13.07;;;4.03;;
68089;SDS011;54880;50.986;6.990;2022-09-20T07:39:14;12.68;;;4.22;;
68089;SDS011;54880;50.986;6.990;2022-09-20T07:41:39;11.57;;;3.93;;
68089;SDS011;54880;50.986;6.990;2022-09-20T07:44:04;15.27;;;4.30;;
68089;SDS011;54880;50.986;6.990;2022-09-20T07:46:53;15.23;;;4.22;;
68089;SDS011;54880;50.986;6.990;2022-09-20T07:49:19;13.32;;;5.47;;
68089;SDS011;54880;50.986;6.990;2022-09-20T07:51:45;14.07;;;4.10;;
68089;SDS011;54880;50.986;6.990;2022-09-20T07:54:10;18.20;;;4.60;;
68089;SDS011;54880;50.986;6.990;2022-09-20T07:56:36;12.17;;;4.20;;
68089;SDS011;54880;50.986;6.990;2022-09-20T07:59:01;13.10;;;4.23;;
68089;SDS011;54880;50.986;6.990;2022-09-20T08:01:27;13.23;;;4.60;;
68089;SDS011;54880;50.986;6.990;2022-09-20T08:03:52;12.87;;;4.20;;
68089;SDS011;54880;50.986;6.990;2022-09-20T08:06:18;10.63;;;4.13;;
68089;SDS011;54880;50.986;6.990;2022-09-20T08:08:45;11.32;;;3.50;;
68089;SDS011;54880;50.986;6.990;2022-09-20T08:11:11;11.00;;;3.67;;
68089;SDS011;54880;50.986;6.990;2022-09-20T08:13:38;11.32;;;3.55;;
68089;SDS011;54880;50.986;6.990;2022-09-20T08:16:04;9.60;;;3.83;;
68089;SDS011;54880;50.986;6.990;2022-09-20T08:18:30;9.10;;;3.20;;
68089;SDS011;54880;50.986;6.990;2022-09-20T08:20:55;11.00;;;3.40;;
68089;SDS011;54880;50.986;6.990;2022-09-20T08:23:20;18.47;;;3.77;;
68089;SDS011;54880;50.986;6.990;2022-09-20T08:25:46;14.13;;;3.60;;
68089;SDS011;54880;50.986;6.990;2022-09-20T08:28:12;13.85;;;3.25;;
68089;SDS011;54880;50.986;6.990;2022-09-20T08:30:37;11.67;;;3.60;;
68089;SDS011;54880;50.986;6.990;2022-09-20T08:33:03;10.97;;;3.00;;
68089;SDS011;54880;50.986;6.990;2022-09-20T08:35:28;10.82;;;3.53;;
68089;SDS011;54880;50.986;6.990;2022-09-20T08:37:54;10.20;;;2.73;;
68089;SDS011;54880;50.986;6.990;2022-09-20T08:40:19;18.10;;;3.60;;
68089;SDS011;54880;50.986;6.990;2022-09-20T08:42:47;12.30;;;3.50;;
68089;SDS011;54880;50.986;6.990;2022-09-20T08:45:14;12.80;;;3.37;;
68089;SDS011;54880;50.986;6.990;2022-09-20T08:47:58;10.38;;;2.70;;
68089;SDS011;54880;50.986;6.990;2022-09-20T08:50:24;14.40;;;3.45;;
68089;SDS011;54880;50.986;6.990;2022-09-20T08:52:51;9.30;;;3.47;;
68089;SDS011;54880;50.986;6.990;2022-09-20T08:55:19;12.07;;;3.38;;
68089;SDS011;54880;50.986;6.990;2022-09-20T08:57:48;8.30;;;2.20;;
68089;SDS011;54880;50.986;6.990;2022-09-20T09:00:15;11.27;;;2.60;;
68089;SDS011;54880;50.986;6.990;2022-09-20T09:02:41;11.57;;;3.53;;
68089;SDS011;54880;50.986;6.990;2022-09-20T09:05:12;10.88;;;2.80;;
68089;SDS011;54880;50.986;6.990;2022-09-20T09:07:47;10.10;;;2.33;;
68089;SDS011;54880;50.986;6.990;2022-09-20T09:10:12;11.20;;;2.93;;
68089;SDS011;54880;50.986;6.990;2022-09-20T09:12:37;11.87;;;2.73;;
68089;SDS011;54880;50.986;6.990;2022-09-20T09:15:15;10.40;;;2.28;;
68089;SDS011;54880;50.986;6.990;2022-09-20T09:17:45;9.98;;;1.90;;
68089;SDS011;54880;50.986;6.990;2022-09-20T09:20:14;10.90;;;1.80;;
68089;SDS011;54880;50.986;6.990;2022-09-20T09:22:41;8.20;;;1.83;;
68089;SDS011;54880;50.986;6.990;2022-09-20T09:30:33;7.63;;;1.73;;
68089;SDS011;54880;50.986;6.990;2022-09-20T09:35:43;10.32;;;1.70;;
68089;SDS011;54880;50.986;6.990;2022-09-20T09:38:17;9.77;;;1.92;;
68089;SDS011;54880;50.986;6.990;2022-09-20T09:40:54;6.47;;;1.20;;
68089;SDS011;54880;50.986;6.990;2022-09-20T09:43:21;7.57;;;1.65;;
68089;SDS011;54880;50.986;6.990;2022-09-20T09:45:47;11.73;;;1.60;;
68089;SDS011;54880;50.986;6.990;2022-09-20T09:48:17;7.40;;;1.40;;
68089;SDS011;54880;50.986;6.990;2022-09-20T09:50:43;8.18;;;1.80;;
68089;SDS011;54880;50.986;6.990;2022-09-20T09:53:09;9.27;;;1.60;;
68089;SDS011;54880;50.986;6.990;2022-09-20T09:55:45;7.20;;;1.30;;
68089;SDS011;54880;50.986;6.990;2022-09-20T10:00:45;8.97;;;1.60;;
68089;SDS011;54880;50.986;6.990;2022-09-20T10:03:23;9.27;;;1.63;;
68089;SDS011;54880;50.986;6.990;2022-09-20T10:05:57;8.48;;;2.05;;
68089;SDS011;54880;50.986;6.990;2022-09-20T10:16:12;10.18;;;2.05;;
68089;SDS011;54880;50.986;6.990;2022-09-20T10:18:43;10.07;;;1.80;;
68089;SDS011;54880;50.986;6.990;2022-09-20T10:23:57;9.55;;;1.90;;
68089;SDS011;54880;50.986;6.990;2022-09-20T10:26:27;11.83;;;1.77;;
68089;SDS011;54880;50.986;6.990;2022-09-20T10:39:30;8.13;;;1.58;;
68089;SDS011;54880;50.986;6.990;2022-09-20T10:42:07;8.13;;;2.28;;
68089;SDS011;54880;50.986;6.990;2022-09-20T10:47:18;7.57;;;1.47;;
68089;SDS011;54880;50.986;6.990;2022-09-20T10:52:30;9.13;;;1.52;;
68089;SDS011;54880;50.986;6.990;2022-09-20T11:03:18;9.23;;;1.47;;
68089;SDS011;54880;50.986;6.990;2022-09-20T11:05:52;11.00;;;1.45;;
68089;SDS011;54880;50.986;6.990;2022-09-20T11:08:19;7.55;;;1.30;;
68089;SDS011;54880;50.986;6.990;2022-09-20T11:10:50;8.38;;;1.48;;
68089;SDS011;54880;50.986;6.990;2022-09-20T11:13:21;7.55;;;1.20;;
68089;SDS011;54880;50.986;6.990;2022-09-20T11:15:54;7.03;;;1.20;;
68089;SDS011;54880;50.986;6.990;2022-09-20T11:18:31;6.45;;;1.15;;
68089;SDS011;54880;50.986;6.990;2022-09-20T11:21:07;9.35;;;1.40;;
68089;SDS011;54880;50.986;6.990;2022-09-20T11:23:42;7.72;;;1.25;;
68089;SDS011;54880;50.986;6.990;2022-09-20T11:26:10;9.15;;;1.13;;
68089;SDS011;54880;50.986;6.990;2022-09-20T11:28:43;8.07;;;1.30;;
68089;SDS011;54880;50.986;6.990;2022-09-20T11:31:15;14.50;;;1.42;;
68089;SDS011;54880;50.986;6.990;2022-09-20T11:33:46;8.45;;;1.88;;
68089;SDS011;54880;50.986;6.990;2022-09-20T11:36:34;10.60;;;1.40;;
68089;SDS011;54880;50.986;6.990;2022-09-20T11:41:34;6.33;;;1.43;;
68089;SDS011;54880;50.986;6.990;2022-09-20T11:44:01;8.25;;;1.30;;
68089;SDS011;54880;50.986;6.990;2022-09-20T11:46:29;9.03;;;1.43;;
68089;SDS011;54880;50.986;6.990;2022-09-20T11:48:57;7.88;;;1.50;;
68089;SDS011;54880;50.986;6.990;2022-09-20T11:56:54;6.00;;;1.10;;
68089;SDS011;54880;50.986;6.990;2022-09-20T11:59:37;6.17;;;1.23;;
68089;SDS011;54880;50.986;6.990;2022-09-20T12:02:12;8.57;;;1.15;;
68089;SDS011;54880;50.986;6.990;2022-09-20T12:04:42;6.40;;;1.20;;
68089;SDS011;54880;50.986;6.990;2022-09-20T12:07:19;7.82;;;1.00;;
68089;SDS011;54880;50.986;6.990;2022-09-20T12:10:06;7.53;;;1.20;;
68089;SDS011;54880;50.986;6.990;2022-09-20T12:12:37;6.50;;;1.00;;
68089;SDS011;54880;50.986;6.990;2022-09-20T12:15:21;5.95;;;1.23;;
68089;SDS011;54880;50.986;6.990;2022-09-20T12:25:57;6.65;;;1.10;;
68089;SDS011;54880;50.986;6.990;2022-09-20T12:28:38;5.60;;;1.20;;
68089;SDS011;54880;50.986;6.990;2022-09-20T12:36:29;4.03;;;0.98;;
68089;SDS011;54880;50.986;6.990;2022-09-20T12:38:58;4.32;;;1.25;;
68089;SDS011;54880;50.986;6.990;2022-09-20T12:41:24;4.07;;;0.97;;
68089;SDS011;54880;50.986;6.990;2022-09-20T12:43:57;6.55;;;1.00;;
68089;SDS011;54880;50.986;6.990;2022-09-20T12:46:33;4.88;;;1.20;;
68089;SDS011;54880;50.986;6.990;2022-09-20T12:49:09;4.97;;;1.10;;
68089;SDS011;54880;50.986;6.990;2022-09-20T12:51:56;6.05;;;1.05;;
68089;SDS011;54880;50.986;6.990;2022-09-20T12:54:52;5.38;;;1.00;;
68089;SDS011;54880;50.986;6.990;2022-09-20T12:57:26;6.20;;;1.13;;
68089;SDS011;54880;50.986;6.990;2022-09-20T12:59:55;6.22;;;1.05;;
68089;SDS011;54880;50.986;6.990;2022-09-20T13:05:34;5.65;;;0.90;;
68089;SDS011;54880;50.986;6.990;2022-09-20T13:08:01;3.63;;;0.80;;
68089;SDS011;54880;50.986;6.990;2022-09-20T13:10:31;3.80;;;0.93;;
68089;SDS011;54880;50.986;6.990;2022-09-20T13:13:03;6.20;;;0.80;;
68089;SDS011;54880;50.986;6.990;2022-09-20T13:15:30;5.00;;;1.00;;
68089;SDS011;54880;50.986;6.990;2022-09-20T13:17:57;5.22;;;1.30;;
68089;SDS011;54880;50.986;6.990;2022-09-20T13:20:26;4.32;;;1.05;;
68089;SDS011;54880;50.986;6.990;2022-09-20T13:22:55;6.60;;;1.00;;
68089;SDS011;54880;50.986;6.990;2022-09-20T13:25:20;6.03;;;1.10;;
68089;SDS011;54880;50.986;6.990;2022-09-20T13:30:28;6.70;;;1.13;;
68089;SDS011;54880;50.986;6.990;2022-09-20T13:33:12;6.10;;;1.20;;
68089;SDS011;54880;50.986;6.990;2022-09-20T13:35:38;7.35;;;1.05;;
68089;SDS011;54880;50.986;6.990;2022-09-20T13:38:04;7.47;;;1.20;;
68089;SDS011;54880;50.986;6.990;2022-09-20T13:40:40;9.60;;;1.30;;
68089;SDS011;54880;50.986;6.990;2022-09-20T13:45:48;5.43;;;1.00;;
68089;SDS011;54880;50.986;6.990;2022-09-20T13:48:15;7.45;;;1.10;;
68089;SDS011;54880;50.986;6.990;2022-09-20T13:50:41;8.57;;;1.53;;
68089;SDS011;54880;50.986;6.990;2022-09-20T13:53:13;8.00;;;1.27;;
68089;SDS011;54880;50.986;6.990;2022-09-20T13:55:40;5.13;;;1.25;;
68089;SDS011;54880;50.986;6.990;2022-09-20T13:58:07;4.85;;;1.05;;
68089;SDS011;54880;50.986;6.990;2022-09-20T14:00:34;8.97;;;1.33;;
68089;SDS011;54880;50.986;6.990;2022-09-20T14:02:59;11.73;;;1.45;;
68089;SDS011;54880;50.986;6.990;2022-09-20T14:05:26;7.57;;;1.60;;
68089;SDS011;54880;50.986;6.990;2022-09-20T14:07:52;11.40;;;1.50;;
68089;SDS011;54880;50.986;6.990;2022-09-20T14:10:26;5.72;;;1.13;;
68089;SDS011;54880;50.986;6.990;2022-09-20T14:12:51;6.35;;;1.13;;
68089;SDS011;54880;50.986;6.990;2022-09-20T14:15:17;5.50;;;1.13;;
68089;SDS011;54880;50.986;6.990;2022-09-20T14:17:42;4.67;;;1.20;;
68089;SDS011;54880;50.986;6.990;2022-09-20T14:20:08;7.30;;;1.20;;
68089;SDS011;54880;50.986;6.990;2022-09-20T14:22:37;5.85;;;1.05;;
68089;SDS011;54880;50.986;6.990;2022-09-20T14:27:37;6.32;;;1.20;;
68089;SDS011;54880;50.986;6.990;2022-09-20T14:30:03;5.70;;;1.00;;
68089;SDS011;54880;50.986;6.990;2022-09-20T14:34:59;6.05;;;1.05;;
68089;SDS011;54880;50.986;6.990;2022-09-20T14:37:29;7.72;;;1.20;;
68089;SDS011;54880;50.986;6.990;2022-09-20T14:39:56;6.67;;;1.30;;
68089;SDS011;54880;50.986;6.990;2022-09-20T14:42:26;6.68;;;1.83;;
68089;SDS011;54880;50.986;6.990;2022-09-20T14:44:52;4.43;;;1.15;;
68089;SDS011;54880;50.986;6.990;2022-09-20T14:47:28;6.80;;;1.20;;
68089;SDS011;54880;50.986;6.990;2022-09-20T14:50:00;6.28;;;1.00;;
68089;SDS011;54880;50.986;6.990;2022-09-20T14:54:57;5.33;;;1.20;;
68089;SDS011;54880;50.986;6.990;2022-09-20T14:57:22;6.00;;;1.38;;
68089;SDS011;54880;50.986;6.990;2022-09-20T14:59:47;6.00;;;1.07;;
68089;SDS011;54880;50.986;6.990;2022-09-20T15:02:18;6.50;;;1.17;;
68089;SDS011;54880;50.986;6.990;2022-09-20T15:04:52;6.10;;;1.08;;
68089;SDS011;54880;50.986;6.990;2022-09-20T15:07:18;5.68;;;1.08;;
68089;SDS011;54880;50.986;6.990;2022-09-20T15:09:44;4.10;;;1.00;;
68089;SDS011;54880;50.986;6.990;2022-09-20T15:12:19;5.60;;;1.33;;
68089;SDS011;54880;50.986;6.990;2022-09-20T15:14:45;7.25;;;1.33;;
68089;SDS011;54880;50.986;6.990;2022-09-20T15:17:14;7.07;;;1.40;;
68089;SDS011;54880;50.986;6.990;2022-09-20T15:19:39;6.55;;;1.48;;
68089;SDS011;54880;50.986;6.990;2022-09-20T15:22:04;7.13;;;1.60;;
68089;SDS011;54880;50.986;6.990;2022-09-20T15:24:30;5.83;;;1.30;;
68089;SDS011;54880;50.986;6.990;2022-09-20T15:26:55;6.07;;;1.20;;
68089;SDS011;54880;50.986;6.990;2022-09-20T15:29:20;8.40;;;2.10;;
68089;SDS011;54880;50.986;6.990;2022-09-20T15:31:46;5.87;;;1.70;;
68089;SDS011;54880;50.986;6.990;2022-09-20T15:34:12;6.00;;;1.60;;
68089;SDS011;54880;50.986;6.990;2022-09-20T15:36:38;8.02;;;1.63;;
68089;SDS011;54880;50.986;6.990;2022-09-20T15:39:03;8.83;;;1.50;;
68089;SDS011;54880;50.986;6.990;2022-09-20T15:41:29;6.60;;;1.30;;
68089;SDS011;54880;50.986;6.990;2022-09-20T15:43:56;6.78;;;1.35;;
68089;SDS011;54880;50.986;6.990;2022-09-20T15:46:22;5.47;;;1.30;;
68089;SDS011;54880;50.986;6.990;2022-09-20T15:48:50;7.40;;;1.30;;
68089;SDS011;54880;50.986;6.990;2022-09-20T15:51:15;7.45;;;1.20;;
68089;SDS011;54880;50.986;6.990;2022-09-20T15:53:44;6.07;;;1.40;;
68089;SDS011;54880;50.986;6.990;2022-09-20T15:56:28;7.07;;;1.40;;
68089;SDS011;54880;50.986;6.990;2022-09-20T15:58:56;7.15;;;1.27;;
68089;SDS011;54880;50.986;6.990;2022-09-20T16:01:25;5.93;;;1.40;;
68089;SDS011;54880;50.986;6.990;2022-09-20T16:03:52;7.57;;;1.10;;
68089;SDS011;54880;50.986;6.990;2022-09-20T16:06:17;6.40;;;1.40;;
68089;SDS011;54880;50.986;6.990;2022-09-20T16:08:42;5.80;;;1.23;;
68089;SDS011;54880;50.986;6.990;2022-09-20T16:11:09;5.93;;;1.40;;
68089;SDS011;54880;50.986;6.990;2022-09-20T16:13:34;7.15;;;1.40;;
68089;SDS011;54880;50.986;6.990;2022-09-20T16:16:03;5.45;;;1.13;;
68089;SDS011;54880;50.986;6.990;2022-09-20T16:18:28;9.05;;;1.85;;
68089;SDS011;54880;50.986;6.990;2022-09-20T16:21:13;6.63;;;1.60;;
68089;SDS011;54880;50.986;6.990;2022-09-20T16:23:40;7.90;;;1.20;;
68089;SDS011;54880;50.986;6.990;2022-09-20T16:26:06;7.00;;;1.10;;
68089;SDS011;54880;50.986;6.990;2022-09-20T16:28:32;10.70;;;1.80;;
68089;SDS011;54880;50.986;6.990;2022-09-20T16:30:58;6.05;;;1.17;;
68089;SDS011;54880;50.986;6.990;2022-09-20T16:33:23;6.03;;;1.17;;
68089;SDS011;54880;50.986;6.990;2022-09-20T16:35:49;7.27;;;1.43;;
68089;SDS011;54880;50.986;6.990;2022-09-20T16:38:14;7.57;;;1.80;;
68089;SDS011;54880;50.986;6.990;2022-09-20T16:40:42;6.50;;;1.38;;
68089;SDS011;54880;50.986;6.990;2022-09-20T16:43:08;8.50;;;2.10;;
68089;SDS011;54880;50.986;6.990;2022-09-20T16:45:34;7.40;;;2.30;;
68089;SDS011;54880;50.986;6.990;2022-09-20T16:47:59;5.70;;;1.50;;
68089;SDS011;54880;50.986;6.990;2022-09-20T16:50:33;6.68;;;1.30;;
68089;SDS011;54880;50.986;6.990;2022-09-20T16:53:04;7.32;;;1.20;;
68089;SDS011;54880;50.986;6.990;2022-09-20T16:55:29;5.20;;;1.13;;
68089;SDS011;54880;50.986;6.990;2022-09-20T17:02:19;6.33;;;1.40;;
68089;SDS011;54880;50.986;6.990;2022-09-20T17:04:44;6.85;;;1.45;;
68089;SDS011;54880;50.986;6.990;2022-09-20T17:07:10;7.13;;;1.33;;
68089;SDS011;54880;50.986;6.990;2022-09-20T17:09:35;6.20;;;1.50;;
68089;SDS011;54880;50.986;6.990;2022-09-20T17:12:00;7.03;;;1.53;;
68089;SDS011;54880;50.986;6.990;2022-09-20T17:14:28;7.05;;;1.80;;
68089;SDS011;54880;50.986;6.990;2022-09-20T17:16:56;6.53;;;1.20;;
68089;SDS011;54880;50.986;6.990;2022-09-20T17:19:22;8.48;;;1.35;;
68089;SDS011;54880;50.986;6.990;2022-09-20T17:21:47;9.60;;;1.30;;
68089;SDS011;54880;50.986;6.990;2022-09-20T17:24:14;7.20;;;1.58;;
68089;SDS011;54880;50.986;6.990;2022-09-20T17:26:40;6.77;;;1.07;;
68089;SDS011;54880;50.986;6.990;2022-09-20T17:29:08;8.27;;;1.50;;
68089;SDS011;54880;50.986;6.990;2022-09-20T17:31:39;6.65;;;1.20;;
68089;SDS011;54880;50.986;6.990;2022-09-20T17:34:06;9.00;;;1.40;;
68089;SDS011;54880;50.986;6.990;2022-09-20T17:36:34;6.32;;;1.27;;
68089;SDS011;54880;50.986;6.990;2022-09-20T17:38:59;7.97;;;1.20;;
68089;SDS011;54880;50.986;6.990;2022-09-20T17:41:25;5.95;;;1.50;;
68089;SDS011;54880;50.986;6.990;2022-09-20T17:43:52;7.70;;;1.40;;
68089;SDS011;54880;50.986;6.990;2022-09-20T17:46:18;8.70;;;1.50;;
68089;SDS011;54880;50.986;6.990;2022-09-20T17:48:49;8.07;;;1.60;;
68089;SDS011;54880;50.986;6.990;2022-09-20T17:51:16;8.07;;;1.55;;
68089;SDS011;54880;50.986;6.990;2022-09-20T17:53:42;9.13;;;1.90;;
68089;SDS011;54880;50.986;6.990;2022-09-20T17:56:08;5.63;;;1.30;;
68089;SDS011;54880;50.986;6.990;2022-09-20T17:58:34;7.15;;;1.67;;
68089;SDS011;54880;50.986;6.990;2022-09-20T18:01:01;7.28;;;1.58;;
68089;SDS011;54880;50.986;6.990;2022-09-20T18:03:26;10.13;;;1.60;;
68089;SDS011;54880;50.986;6.990;2022-09-20T18:05:52;6.85;;;1.70;;
68089;SDS011;54880;50.986;6.990;2022-09-20T18:08:18;7.40;;;2.30;;
68089;SDS011;54880;50.986;6.990;2022-09-20T18:10:53;6.20;;;1.70;;
68089;SDS011;54880;50.986;6.990;2022-09-20T18:13:18;5.55;;;1.70;;
68089;SDS011;54880;50.986;6.990;2022-09-20T18:15:44;9.63;;;1.80;;
68089;SDS011;54880;50.986;6.990;2022-09-20T18:18:09;11.53;;;2.03;;
68089;SDS011;54880;50.986;6.990;2022-09-20T18:20:35;8.18;;;1.80;;
68089;SDS011;54880;50.986;6.990;2022-09-20T18:23:00;7.27;;;1.77;;
68089;SDS011;54880;50.986;6.990;2022-09-20T18:25:25;9.87;;;2.23;;
68089;SDS011;54880;50.986;6.990;2022-09-20T18:27:51;10.27;;;1.93;;
68089;SDS011;54880;50.986;6.990;2022-09-20T18:30:16;9.33;;;1.80;;
68089;SDS011;54880;50.986;6.990;2022-09-20T18:32:42;7.78;;;1.80;;
68089;SDS011;54880;50.986;6.990;2022-09-20T18:35:08;7.27;;;2.00;;
68089;SDS011;54880;50.986;6.990;2022-09-20T18:37:34;6.40;;;1.95;;
68089;SDS011;54880;50.986;6.990;2022-09-20T18:40:01;7.10;;;2.03;;
68089;SDS011;54880;50.986;6.990;2022-09-20T18:42:26;6.00;;;1.80;;
68089;SDS011;54880;50.986;6.990;2022-09-20T18:44:51;7.17;;;2.03;;
68089;SDS011;54880;50.986;6.990;2022-09-20T18:47:16;8.50;;;2.50;;
68089;SDS011;54880;50.986;6.990;2022-09-20T18:49:43;10.48;;;2.20;;
68089;SDS011;54880;50.986;6.990;2022-09-20T18:52:08;12.70;;;2.40;;
68089;SDS011;54880;50.986;6.990;2022-09-20T18:54:35;8.37;;;2.53;;
68089;SDS011;54880;50.986;6.990;2022-09-20T18:57:01;7.00;;;2.10;;
68089;SDS011;54880;50.986;6.990;2022-09-20T18:59:26;7.50;;;3.10;;
68089;SDS011;54880;50.986;6.990;2022-09-20T19:01:55;12.25;;;2.42;;
68089;SDS011;54880;50.986;6.990;2022-09-20T19:04:26;9.73;;;2.20;;
68089;SDS011;54880;50.986;6.990;2022-09-20T19:12:19;7.70;;;2.75;;
68089;SDS011;54880;50.986;6.990;2022-09-20T19:17:16;10.40;;;2.70;;
68089;SDS011;54880;50.986;6.990;2022-09-20T19:19:48;7.22;;;2.70;;
68089;SDS011;54880;50.986;6.990;2022-09-20T19:27:50;7.53;;;2.50;;
68089;SDS011;54880;50.986;6.990;2022-09-20T19:30:17;8.13;;;2.53;;